Airfield :
LOGIN :

Register | Disclaimer

   EN    FR    IT 

 










Legend :    VFR   Marginal VFR   IFR   Intensive IFR   Very Intensive IFR
Visi :
Ceiling :
>= 8 km
>= 3000ft
5 to 8 km
1000 to 3000 ft
1500m to 5 km
500 to 1000 ft
800 to 1500m
200 to 500 ft
< 800m
< 200 ft
Symbols :   Thunderstorms  Fog  Heavy snow  Heavy precipitations  Wind > 20 kt
SIGMETs :     Misc.  Thunderstorms  Icing  Turbulence  Mountain Waves  Volcanic Ashes






- Airport Elevation : 200 ft


EBBL - Klein Brogel AB

CURRENT METAR :
  • 070733Z 33010KT 9999 FEW019 SCT021 BKN050 17/13 Q1022 WHT WHT TEMPO GRN

EXPIRED METARs :
  • 070721Z 32009KT 9999 FEW015 SCT035 BKN050 17/13 Q1022 BLU BLU TEMPO WHT
  • 070655Z 29006KT 9999 FEW014 SCT035 BKN050 17/15 Q1021 BLU BLU TEMPO GRN
  • 070636Z 30006KT 9999 FEW014 SCT035 BKN050 16/14 Q1021 BLU BLU TEMPO GRN
  • 070625Z 30007KT 8000 SCT009 SCT035 BKN050 16/15 Q1021 GRN WHT TEMPO GRN
  • 070604Z 29006KT 8000 FEW009 SCT020 BKN030 16/15 Q1021 WHT WHT TEMPO GRN
  • 070541Z 28007KT 5000 SCT009 SCT020 BKN030 16/15 Q1020 GRN WHT TEMPO GRN
  • 070525Z 27006KT 9999 FEW009 SCT020 BKN030 16/15 Q1020 WHT BLU TEMPO WHT
  • 070518Z 27006KT 9999 FEW009 SCT020 BKN030 16/15 Q1020 WHT BLU TEMPO WHT

TAF TAF EBBL
Valid from the 07 at 07:00 until the 07 at 16:00 UTC


070541Z 0707/0716 33010KT 9999 BKN030
TEMPO 0707/0716 33012G25KT BKN020



MET'MAP, your aeronautical weather chart ! - Copyright ORBIFLY December 2007 - Disclaimer

ORBIFLY MET'MAP TEAM :

Programming & Development : Alexandra Zaïnal
Original concept : Baudouin d'Aumeries
Technical & hardware support : Manuel Goepfert
Assistance : Marc-Olivier Méhu




SOURCES & CREDITS :

   NOAA